Terminal Aerodrome Forecast
Issued by NWS

Home | Current Version | Previous Version | Text Only | Print | Product List | Glossary On
Versions: 1 2 3 4 5 6 7 8 9 10 11 12 13 14 15 16 17 18 19 20 21 22 23 24 25 26 27 28 29 30 31 32 33 34 35 36 37 38 39 40 41 42 43 44 45 46 47 48 49
000
FTAK31 PAFA 061434 AAA
TAFAUN
TAF AMD
PAUN 061434Z 0615/0712 15008KT P6SM OVC045
      TEMPO 0615/0618 2SM -RASN BKN005 OVC020
     FM061800 12025G35KT 1 1/2SM -RASN BR BKN005 OVC015
     FM062100 14025G35KT 1/2SM -SN BLSN FZFG BKN005 OVC015
     FM070300 22018G28KT 2SM -SN BLSN BR BKN007 OVC015=

USA.gov is the U.S. government's official web portal to all federal, state and local government web resources and services.